sensor_id;sensor_type;location;lat;lon;timestamp;P1;durP1;ratioP1;P2;durP2;ratioP2
71800;SDS011;59647;55.838;37.292;2023-08-21T00:00:17;8.15;;;3.15;;
71800;SDS011;59647;55.838;37.292;2023-08-21T00:02:43;6.50;;;4.05;;
71800;SDS011;59647;55.838;37.292;2023-08-21T00:05:09;7.57;;;3.97;;
71800;SDS011;59647;55.838;37.292;2023-08-21T00:07:35;7.85;;;4.10;;
71800;SDS011;59647;55.838;37.292;2023-08-21T00:10:00;6.97;;;3.70;;
71800;SDS011;59647;55.838;37.292;2023-08-21T00:12:28;7.57;;;3.97;;
71800;SDS011;59647;55.838;37.292;2023-08-21T00:14:54;6.95;;;3.75;;
71800;SDS011;59647;55.838;37.292;2023-08-21T00:17:20;8.27;;;4.05;;
71800;SDS011;59647;55.838;37.292;2023-08-21T00:19:46;5.65;;;3.55;;
71800;SDS011;59647;55.838;37.292;2023-08-21T00:22:12;10.85;;;4.03;;
71800;SDS011;59647;55.838;37.292;2023-08-21T00:24:37;9.57;;;3.53;;
71800;SDS011;59647;55.838;37.292;2023-08-21T00:27:03;4.07;;;2.40;;
71800;SDS011;59647;55.838;37.292;2023-08-21T00:29:29;8.15;;;4.10;;
71800;SDS011;59647;55.838;37.292;2023-08-21T00:31:55;6.38;;;3.60;;
71800;SDS011;59647;55.838;37.292;2023-08-21T00:34:21;7.00;;;3.33;;
71800;SDS011;59647;55.838;37.292;2023-08-21T00:36:47;7.60;;;3.13;;
71800;SDS011;59647;55.838;37.292;2023-08-21T00:39:13;5.57;;;3.05;;
71800;SDS011;59647;55.838;37.292;2023-08-21T00:41:39;5.30;;;3.10;;
71800;SDS011;59647;55.838;37.292;2023-08-21T00:44:05;7.63;;;3.50;;
71800;SDS011;59647;55.838;37.292;2023-08-21T00:46:31;6.82;;;4.05;;
71800;SDS011;59647;55.838;37.292;2023-08-21T00:48:57;5.53;;;3.45;;
71800;SDS011;59647;55.838;37.292;2023-08-21T00:51:23;10.90;;;4.22;;
71800;SDS011;59647;55.838;37.292;2023-08-21T00:53:49;9.07;;;3.80;;
71800;SDS011;59647;55.838;37.292;2023-08-21T00:56:15;14.38;;;4.70;;
71800;SDS011;59647;55.838;37.292;2023-08-21T00:58:41;6.75;;;3.72;;
71800;SDS011;59647;55.838;37.292;2023-08-21T01:01:08;8.07;;;4.03;;
71800;SDS011;59647;55.838;37.292;2023-08-21T01:03:34;6.93;;;4.15;;
71800;SDS011;59647;55.838;37.292;2023-08-21T01:06:00;7.55;;;3.70;;
71800;SDS011;59647;55.838;37.292;2023-08-21T01:14:01;9.50;;;3.72;;
71800;SDS011;59647;55.838;37.292;2023-08-21T01:16:33;6.82;;;3.92;;
71800;SDS011;59647;55.838;37.292;2023-08-21T01:19:01;9.50;;;4.50;;
71800;SDS011;59647;55.838;37.292;2023-08-21T01:21:29;6.50;;;3.95;;
71800;SDS011;59647;55.838;37.292;2023-08-21T01:23:55;6.70;;;3.58;;
71800;SDS011;59647;55.838;37.292;2023-08-21T01:26:21;7.95;;;3.78;;
71800;SDS011;59647;55.838;37.292;2023-08-21T01:28:47;10.40;;;4.13;;
71800;SDS011;59647;55.838;37.292;2023-08-21T01:33:54;6.55;;;3.90;;
71800;SDS011;59647;55.838;37.292;2023-08-21T01:36:24;10.63;;;3.78;;
71800;SDS011;59647;55.838;37.292;2023-08-21T01:38:51;6.82;;;4.38;;
71800;SDS011;59647;55.838;37.292;2023-08-21T01:41:17;7.32;;;4.28;;
71800;SDS011;59647;55.838;37.292;2023-08-21T01:43:43;6.55;;;3.63;;
71800;SDS011;59647;55.838;37.292;2023-08-21T01:46:09;10.55;;;4.25;;
71800;SDS011;59647;55.838;37.292;2023-08-21T01:48:36;6.55;;;3.78;;
71800;SDS011;59647;55.838;37.292;2023-08-21T01:51:01;9.07;;;3.95;;
71800;SDS011;59647;55.838;37.292;2023-08-21T01:53:28;11.88;;;3.92;;
71800;SDS011;59647;55.838;37.292;2023-08-21T01:55:54;6.32;;;3.72;;
71800;SDS011;59647;55.838;37.292;2023-08-21T01:58:20;10.35;;;3.60;;
71800;SDS011;59647;55.838;37.292;2023-08-21T02:00:46;7.93;;;3.45;;
71800;SDS011;59647;55.838;37.292;2023-08-21T02:03:13;8.35;;;3.83;;
71800;SDS011;59647;55.838;37.292;2023-08-21T02:05:39;12.57;;;4.03;;
71800;SDS011;59647;55.838;37.292;2023-08-21T02:08:06;8.27;;;4.00;;
71800;SDS011;59647;55.838;37.292;2023-08-21T02:10:35;7.35;;;3.20;;
71800;SDS011;59647;55.838;37.292;2023-08-21T02:13:01;8.60;;;4.20;;
71800;SDS011;59647;55.838;37.292;2023-08-21T02:15:26;7.47;;;3.65;;
71800;SDS011;59647;55.838;37.292;2023-08-21T02:17:52;9.48;;;3.95;;
71800;SDS011;59647;55.838;37.292;2023-08-21T02:20:19;8.63;;;3.75;;
71800;SDS011;59647;55.838;37.292;2023-08-21T02:22:44;7.13;;;3.97;;
71800;SDS011;59647;55.838;37.292;2023-08-21T02:25:10;7.95;;;3.22;;
71800;SDS011;59647;55.838;37.292;2023-08-21T02:27:36;7.45;;;3.70;;
71800;SDS011;59647;55.838;37.292;2023-08-21T02:30:03;8.30;;;3.17;;
71800;SDS011;59647;55.838;37.292;2023-08-21T02:32:30;8.82;;;3.30;;
71800;SDS011;59647;55.838;37.292;2023-08-21T02:34:59;7.38;;;3.72;;
71800;SDS011;59647;55.838;37.292;2023-08-21T02:37:24;11.18;;;3.97;;
71800;SDS011;59647;55.838;37.292;2023-08-21T02:39:50;9.23;;;4.13;;
71800;SDS011;59647;55.838;37.292;2023-08-21T02:42:16;8.60;;;3.53;;
71800;SDS011;59647;55.838;37.292;2023-08-21T02:44:42;8.48;;;3.90;;
71800;SDS011;59647;55.838;37.292;2023-08-21T02:47:08;11.25;;;3.55;;
71800;SDS011;59647;55.838;37.292;2023-08-21T02:49:34;7.20;;;4.30;;
71800;SDS011;59647;55.838;37.292;2023-08-21T02:52:00;7.90;;;3.70;;
71800;SDS011;59647;55.838;37.292;2023-08-21T02:54:26;9.68;;;3.78;;
71800;SDS011;59647;55.838;37.292;2023-08-21T02:56:52;6.97;;;4.22;;
71800;SDS011;59647;55.838;37.292;2023-08-21T02:59:17;11.73;;;4.45;;
71800;SDS011;59647;55.838;37.292;2023-08-21T03:01:43;8.23;;;3.60;;
71800;SDS011;59647;55.838;37.292;2023-08-21T03:04:09;7.75;;;3.60;;
71800;SDS011;59647;55.838;37.292;2023-08-21T03:06:35;10.30;;;4.28;;
71800;SDS011;59647;55.838;37.292;2023-08-21T03:09:01;7.85;;;4.43;;
71800;SDS011;59647;55.838;37.292;2023-08-21T03:11:27;7.95;;;4.28;;
71800;SDS011;59647;55.838;37.292;2023-08-21T03:13:53;9.30;;;4.35;;
71800;SDS011;59647;55.838;37.292;2023-08-21T03:16:21;11.60;;;4.65;;
71800;SDS011;59647;55.838;37.292;2023-08-21T03:18:57;13.52;;;4.72;;
71800;SDS011;59647;55.838;37.292;2023-08-21T03:21:26;14.93;;;5.50;;
71800;SDS011;59647;55.838;37.292;2023-08-21T03:23:54;8.60;;;4.35;;
71800;SDS011;59647;55.838;37.292;2023-08-21T03:26:22;6.43;;;3.53;;
71800;SDS011;59647;55.838;37.292;2023-08-21T03:28:49;6.35;;;3.35;;
71800;SDS011;59647;55.838;37.292;2023-08-21T03:31:15;11.02;;;4.85;;
71800;SDS011;59647;55.838;37.292;2023-08-21T03:33:41;10.52;;;3.63;;
71800;SDS011;59647;55.838;37.292;2023-08-21T03:36:07;16.65;;;4.82;;
71800;SDS011;59647;55.838;37.292;2023-08-21T03:38:34;8.55;;;4.22;;
71800;SDS011;59647;55.838;37.292;2023-08-21T03:41:00;12.02;;;4.22;;
71800;SDS011;59647;55.838;37.292;2023-08-21T03:43:27;8.40;;;3.60;;
71800;SDS011;59647;55.838;37.292;2023-08-21T03:45:53;8.60;;;3.58;;
71800;SDS011;59647;55.838;37.292;2023-08-21T03:48:19;8.30;;;3.78;;
71800;SDS011;59647;55.838;37.292;2023-08-21T03:50:45;7.38;;;3.60;;
71800;SDS011;59647;55.838;37.292;2023-08-21T03:53:11;7.22;;;3.15;;
71800;SDS011;59647;55.838;37.292;2023-08-21T03:55:38;6.35;;;3.70;;
71800;SDS011;59647;55.838;37.292;2023-08-21T03:58:03;7.70;;;3.65;;
71800;SDS011;59647;55.838;37.292;2023-08-21T04:00:29;6.97;;;3.28;;
71800;SDS011;59647;55.838;37.292;2023-08-21T04:02:57;5.50;;;3.00;;
71800;SDS011;59647;55.838;37.292;2023-08-21T04:05:23;7.45;;;3.08;;
71800;SDS011;59647;55.838;37.292;2023-08-21T04:07:49;8.75;;;2.92;;
71800;SDS011;59647;55.838;37.292;2023-08-21T04:10:15;8.98;;;2.95;;
71800;SDS011;59647;55.838;37.292;2023-08-21T04:12:42;5.25;;;2.38;;
71800;SDS011;59647;55.838;37.292;2023-08-21T04:15:08;9.55;;;2.20;;
71800;SDS011;59647;55.838;37.292;2023-08-21T04:17:34;7.97;;;2.90;;
71800;SDS011;59647;55.838;37.292;2023-08-21T04:20:00;7.13;;;2.35;;
71800;SDS011;59647;55.838;37.292;2023-08-21T04:22:29;3.60;;;2.42;;
71800;SDS011;59647;55.838;37.292;2023-08-21T04:24:54;7.88;;;2.78;;
71800;SDS011;59647;55.838;37.292;2023-08-21T04:27:20;5.07;;;2.20;;
71800;SDS011;59647;55.838;37.292;2023-08-21T04:29:46;4.65;;;2.50;;
71800;SDS011;59647;55.838;37.292;2023-08-21T04:32:12;4.25;;;2.33;;
71800;SDS011;59647;55.838;37.292;2023-08-21T04:34:39;3.53;;;2.08;;
71800;SDS011;59647;55.838;37.292;2023-08-21T04:37:05;3.85;;;2.20;;
71800;SDS011;59647;55.838;37.292;2023-08-21T04:39:31;6.63;;;2.45;;
71800;SDS011;59647;55.838;37.292;2023-08-21T04:41:57;4.88;;;1.90;;
71800;SDS011;59647;55.838;37.292;2023-08-21T04:44:23;4.57;;;2.10;;
71800;SDS011;59647;55.838;37.292;2023-08-21T04:46:50;5.97;;;1.75;;
71800;SDS011;59647;55.838;37.292;2023-08-21T04:49:17;6.38;;;2.05;;
71800;SDS011;59647;55.838;37.292;2023-08-21T04:51:43;7.60;;;1.63;;
71800;SDS011;59647;55.838;37.292;2023-08-21T04:54:09;3.25;;;1.73;;
71800;SDS011;59647;55.838;37.292;2023-08-21T04:56:38;2.80;;;1.55;;
71800;SDS011;59647;55.838;37.292;2023-08-21T04:59:04;3.97;;;1.55;;
71800;SDS011;59647;55.838;37.292;2023-08-21T05:01:30;2.10;;;1.20;;
71800;SDS011;59647;55.838;37.292;2023-08-21T05:03:58;3.10;;;1.25;;
71800;SDS011;59647;55.838;37.292;2023-08-21T05:06:24;9.30;;;1.80;;
71800;SDS011;59647;55.838;37.292;2023-08-21T05:08:50;2.25;;;1.17;;
71800;SDS011;59647;55.838;37.292;2023-08-21T05:11:16;6.53;;;1.40;;
71800;SDS011;59647;55.838;37.292;2023-08-21T05:13:43;1.98;;;1.27;;
71800;SDS011;59647;55.838;37.292;2023-08-21T05:16:11;5.38;;;1.35;;
71800;SDS011;59647;55.838;37.292;2023-08-21T05:18:39;3.85;;;1.30;;
71800;SDS011;59647;55.838;37.292;2023-08-21T05:21:05;3.53;;;1.50;;
71800;SDS011;59647;55.838;37.292;2023-08-21T05:23:31;6.03;;;1.10;;
71800;SDS011;59647;55.838;37.292;2023-08-21T05:26:04;3.63;;;1.70;;
71800;SDS011;59647;55.838;37.292;2023-08-21T05:28:31;1.65;;;0.90;;
71800;SDS011;59647;55.838;37.292;2023-08-21T05:30:57;2.33;;;0.88;;
71800;SDS011;59647;55.838;37.292;2023-08-21T05:33:23;6.75;;;1.23;;
71800;SDS011;59647;55.838;37.292;2023-08-21T05:35:50;2.95;;;1.38;;
71800;SDS011;59647;55.838;37.292;2023-08-21T05:38:16;2.45;;;1.27;;
71800;SDS011;59647;55.838;37.292;2023-08-21T05:40:42;5.18;;;1.50;;
71800;SDS011;59647;55.838;37.292;2023-08-21T05:43:08;1.92;;;1.20;;
71800;SDS011;59647;55.838;37.292;2023-08-21T05:45:37;2.35;;;1.27;;
71800;SDS011;59647;55.838;37.292;2023-08-21T05:48:03;6.18;;;1.50;;
71800;SDS011;59647;55.838;37.292;2023-08-21T05:50:29;3.22;;;1.23;;
71800;SDS011;59647;55.838;37.292;2023-08-21T05:52:55;3.58;;;1.50;;
71800;SDS011;59647;55.838;37.292;2023-08-21T05:55:24;3.85;;;1.13;;
71800;SDS011;59647;55.838;37.292;2023-08-21T05:57:50;4.00;;;1.48;;
71800;SDS011;59647;55.838;37.292;2023-08-21T06:00:18;2.78;;;1.05;;
71800;SDS011;59647;55.838;37.292;2023-08-21T06:02:44;6.50;;;1.52;;
71800;SDS011;59647;55.838;37.292;2023-08-21T06:05:20;3.92;;;1.35;;
71800;SDS011;59647;55.838;37.292;2023-08-21T06:07:49;5.53;;;1.20;;
71800;SDS011;59647;55.838;37.292;2023-08-21T06:10:16;2.03;;;1.27;;
71800;SDS011;59647;55.838;37.292;2023-08-21T06:12:42;4.68;;;1.38;;
71800;SDS011;59647;55.838;37.292;2023-08-21T06:15:08;3.42;;;1.45;;
71800;SDS011;59647;55.838;37.292;2023-08-21T06:17:35;2.45;;;1.30;;
71800;SDS011;59647;55.838;37.292;2023-08-21T06:20:02;2.25;;;1.25;;
71800;SDS011;59647;55.838;37.292;2023-08-21T06:22:31;3.10;;;1.30;;
71800;SDS011;59647;55.838;37.292;2023-08-21T06:24:57;4.10;;;1.70;;
71800;SDS011;59647;55.838;37.292;2023-08-21T06:27:23;7.82;;;1.10;;
71800;SDS011;59647;55.838;37.292;2023-08-21T06:29:49;4.32;;;1.00;;
71800;SDS011;59647;55.838;37.292;2023-08-21T06:32:15;2.00;;;1.20;;
71800;SDS011;59647;55.838;37.292;2023-08-21T06:34:42;11.20;;;1.30;;
71800;SDS011;59647;55.838;37.292;2023-08-21T06:37:08;4.38;;;1.77;;
71800;SDS011;59647;55.838;37.292;2023-08-21T06:39:34;1.73;;;0.95;;
71800;SDS011;59647;55.838;37.292;2023-08-21T06:42:01;5.38;;;1.27;;
71800;SDS011;59647;55.838;37.292;2023-08-21T06:44:35;2.42;;;1.30;;
71800;SDS011;59647;55.838;37.292;2023-08-21T06:47:01;3.08;;;1.00;;
71800;SDS011;59647;55.838;37.292;2023-08-21T06:49:27;2.10;;;1.02;;
71800;SDS011;59647;55.838;37.292;2023-08-21T06:51:53;2.20;;;1.13;;
71800;SDS011;59647;55.838;37.292;2023-08-21T06:54:19;2.90;;;1.33;;
71800;SDS011;59647;55.838;37.292;2023-08-21T06:56:44;2.65;;;1.20;;
71800;SDS011;59647;55.838;37.292;2023-08-21T06:59:10;2.20;;;1.10;;
71800;SDS011;59647;55.838;37.292;2023-08-21T07:01:36;5.07;;;1.30;;
71800;SDS011;59647;55.838;37.292;2023-08-21T07:04:02;2.47;;;1.10;;
71800;SDS011;59647;55.838;37.292;2023-08-21T07:06:28;9.30;;;1.63;;
71800;SDS011;59647;55.838;37.292;2023-08-21T07:08:55;5.45;;;1.10;;
71800;SDS011;59647;55.838;37.292;2023-08-21T07:11:21;3.45;;;1.02;;
71800;SDS011;59647;55.838;37.292;2023-08-21T07:13:46;3.95;;;1.10;;
71800;SDS011;59647;55.838;37.292;2023-08-21T07:16:12;6.28;;;2.30;;
71800;SDS011;59647;55.838;37.292;2023-08-21T07:18:38;2.20;;;1.27;;
71800;SDS011;59647;55.838;37.292;2023-08-21T07:21:04;3.33;;;1.02;;
71800;SDS011;59647;55.838;37.292;2023-08-21T07:23:30;4.80;;;1.33;;
71800;SDS011;59647;55.838;37.292;2023-08-21T07:25:57;2.13;;;1.30;;
71800;SDS011;59647;55.838;37.292;2023-08-21T07:28:24;2.22;;;1.15;;
71800;SDS011;59647;55.838;37.292;2023-08-21T07:30:58;2.15;;;1.23;;
71800;SDS011;59647;55.838;37.292;2023-08-21T07:33:24;1.70;;;1.02;;
71800;SDS011;59647;55.838;37.292;2023-08-21T07:35:57;1.63;;;0.93;;
71800;SDS011;59647;55.838;37.292;2023-08-21T07:38:27;2.15;;;1.30;;
71800;SDS011;59647;55.838;37.292;2023-08-21T07:41:05;3.97;;;1.10;;
71800;SDS011;59647;55.838;37.292;2023-08-21T07:43:33;2.05;;;0.93;;
71800;SDS011;59647;55.838;37.292;2023-08-21T07:46:05;1.42;;;1.05;;
71800;SDS011;59647;55.838;37.292;2023-08-21T07:48:32;4.38;;;0.98;;
71800;SDS011;59647;55.838;37.292;2023-08-21T07:50:59;1.95;;;1.02;;
71800;SDS011;59647;55.838;37.292;2023-08-21T07:53:25;2.67;;;1.38;;
71800;SDS011;59647;55.838;37.292;2023-08-21T07:55:51;2.50;;;1.30;;
71800;SDS011;59647;55.838;37.292;2023-08-21T07:58:18;10.07;;;1.50;;
71800;SDS011;59647;55.838;37.292;2023-08-21T08:00:44;4.82;;;1.15;;
71800;SDS011;59647;55.838;37.292;2023-08-21T08:03:11;2.38;;;1.13;;
71800;SDS011;59647;55.838;37.292;2023-08-21T08:05:40;3.55;;;1.23;;
71800;SDS011;59647;55.838;37.292;2023-08-21T08:08:07;2.28;;;1.17;;
71800;SDS011;59647;55.838;37.292;2023-08-21T08:10:33;5.88;;;1.10;;
71800;SDS011;59647;55.838;37.292;2023-08-21T08:12:59;3.67;;;1.92;;
71800;SDS011;59647;55.838;37.292;2023-08-21T08:15:25;2.35;;;1.17;;
71800;SDS011;59647;55.838;37.292;2023-08-21T08:17:53;3.33;;;1.10;;
71800;SDS011;59647;55.838;37.292;2023-08-21T08:20:20;2.58;;;0.90;;
71800;SDS011;59647;55.838;37.292;2023-08-21T08:22:46;1.98;;;1.10;;
71800;SDS011;59647;55.838;37.292;2023-08-21T08:25:12;3.22;;;1.42;;
71800;SDS011;59647;55.838;37.292;2023-08-21T08:27:39;2.30;;;1.23;;
71800;SDS011;59647;55.838;37.292;2023-08-21T08:30:05;2.83;;;1.20;;
71800;SDS011;59647;55.838;37.292;2023-08-21T08:32:31;3.05;;;1.10;;
71800;SDS011;59647;55.838;37.292;2023-08-21T08:34:57;2.72;;;1.20;;
71800;SDS011;59647;55.838;37.292;2023-08-21T08:37:23;2.83;;;1.30;;
71800;SDS011;59647;55.838;37.292;2023-08-21T08:39:49;3.05;;;1.02;;
71800;SDS011;59647;55.838;37.292;2023-08-21T08:42:15;1.92;;;1.25;;
71800;SDS011;59647;55.838;37.292;2023-08-21T08:44:42;2.33;;;1.70;;
71800;SDS011;59647;55.838;37.292;2023-08-21T08:47:09;6.72;;;1.30;;
71800;SDS011;59647;55.838;37.292;2023-08-21T08:49:36;4.85;;;1.20;;
71800;SDS011;59647;55.838;37.292;2023-08-21T08:52:03;2.05;;;1.20;;
71800;SDS011;59647;55.838;37.292;2023-08-21T08:54:30;1.73;;;0.98;;
71800;SDS011;59647;55.838;37.292;2023-08-21T08:56:57;3.30;;;1.20;;
71800;SDS011;59647;55.838;37.292;2023-08-21T08:59:23;4.00;;;1.30;;
71800;SDS011;59647;55.838;37.292;2023-08-21T09:01:50;3.65;;;1.23;;
71800;SDS011;59647;55.838;37.292;2023-08-21T09:04:16;2.38;;;1.35;;
71800;SDS011;59647;55.838;37.292;2023-08-21T09:06:42;2.05;;;1.20;;
71800;SDS011;59647;55.838;37.292;2023-08-21T09:09:08;3.33;;;1.15;;
71800;SDS011;59647;55.838;37.292;2023-08-21T09:11:46;3.08;;;1.20;;
71800;SDS011;59647;55.838;37.292;2023-08-21T09:14:13;6.80;;;1.67;;
71800;SDS011;59647;55.838;37.292;2023-08-21T09:16:56;2.72;;;1.10;;
71800;SDS011;59647;55.838;37.292;2023-08-21T09:19:24;2.58;;;1.20;;
71800;SDS011;59647;55.838;37.292;2023-08-21T09:21:50;2.50;;;1.20;;
71800;SDS011;59647;55.838;37.292;2023-08-21T09:24:16;3.72;;;1.30;;
71800;SDS011;59647;55.838;37.292;2023-08-21T09:26:44;1.98;;;1.10;;
71800;SDS011;59647;55.838;37.292;2023-08-21T09:29:10;2.72;;;0.90;;
71800;SDS011;59647;55.838;37.292;2023-08-21T09:31:36;3.20;;;1.10;;
71800;SDS011;59647;55.838;37.292;2023-08-21T09:34:03;2.47;;;1.10;;
71800;SDS011;59647;55.838;37.292;2023-08-21T09:36:35;2.22;;;1.20;;
71800;SDS011;59647;55.838;37.292;2023-08-21T09:39:01;3.05;;;1.10;;
71800;SDS011;59647;55.838;37.292;2023-08-21T09:41:28;3.20;;;1.13;;
71800;SDS011;59647;55.838;37.292;2023-08-21T09:44:03;3.47;;;1.73;;
71800;SDS011;59647;55.838;37.292;2023-08-21T09:46:29;2.83;;;0.98;;
71800;SDS011;59647;55.838;37.292;2023-08-21T09:48:56;2.45;;;1.20;;
71800;SDS011;59647;55.838;37.292;2023-08-21T09:51:23;4.88;;;1.27;;
71800;SDS011;59647;55.838;37.292;2023-08-21T09:53:49;3.35;;;1.13;;
71800;SDS011;59647;55.838;37.292;2023-08-21T09:56:34;3.88;;;1.33;;
71800;SDS011;59647;55.838;37.292;2023-08-21T09:59:02;2.53;;;1.15;;
71800;SDS011;59647;55.838;37.292;2023-08-21T10:01:28;1.92;;;1.30;;
71800;SDS011;59647;55.838;37.292;2023-08-21T10:03:56;2.15;;;1.38;;
71800;SDS011;59647;55.838;37.292;2023-08-21T10:06:28;6.03;;;1.13;;
71800;SDS011;59647;55.838;37.292;2023-08-21T10:08:55;3.15;;;1.50;;
71800;SDS011;59647;55.838;37.292;2023-08-21T10:11:22;2.67;;;1.27;;
71800;SDS011;59647;55.838;37.292;2023-08-21T10:13:48;1.58;;;1.10;;
71800;SDS011;59647;55.838;37.292;2023-08-21T10:16:18;6.40;;;1.38;;
71800;SDS011;59647;55.838;37.292;2023-08-21T10:18:47;9.75;;;1.30;;
71800;SDS011;59647;55.838;37.292;2023-08-21T10:21:17;2.55;;;1.13;;
71800;SDS011;59647;55.838;37.292;2023-08-21T10:23:48;2.28;;;1.20;;
71800;SDS011;59647;55.838;37.292;2023-08-21T10:26:20;2.40;;;1.10;;
71800;SDS011;59647;55.838;37.292;2023-08-21T10:28:48;3.60;;;1.17;;
71800;SDS011;59647;55.838;37.292;2023-08-21T10:31:29;2.03;;;1.05;;
71800;SDS011;59647;55.838;37.292;2023-08-21T10:33:59;2.65;;;1.10;;
71800;SDS011;59647;55.838;37.292;2023-08-21T10:39:18;3.28;;;1.23;;
71800;SDS011;59647;55.838;37.292;2023-08-21T10:47:19;2.38;;;1.15;;
71800;SDS011;59647;55.838;37.292;2023-08-21T10:49:53;4.00;;;1.20;;
71800;SDS011;59647;55.838;37.292;2023-08-21T10:52:26;2.53;;;1.23;;
71800;SDS011;59647;55.838;37.292;2023-08-21T10:54:53;2.50;;;1.20;;
71800;SDS011;59647;55.838;37.292;2023-08-21T10:57:21;5.30;;;1.08;;
71800;SDS011;59647;55.838;37.292;2023-08-21T11:00:03;3.40;;;1.20;;
71800;SDS011;59647;55.838;37.292;2023-08-21T11:02:32;3.05;;;1.30;;
71800;SDS011;59647;55.838;37.292;2023-08-21T11:04:59;4.65;;;1.20;;
71800;SDS011;59647;55.838;37.292;2023-08-21T11:07:25;3.45;;;1.00;;
71800;SDS011;59647;55.838;37.292;2023-08-21T11:09:52;1.23;;;0.80;;
71800;SDS011;59647;55.838;37.292;2023-08-21T11:12:19;1.98;;;1.10;;
71800;SDS011;59647;55.838;37.292;2023-08-21T11:14:47;2.78;;;1.30;;
71800;SDS011;59647;55.838;37.292;2023-08-21T11:17:13;3.35;;;1.15;;
71800;SDS011;59647;55.838;37.292;2023-08-21T11:19:40;1.75;;;0.90;;
71800;SDS011;59647;55.838;37.292;2023-08-21T11:22:07;2.00;;;1.10;;
71800;SDS011;59647;55.838;37.292;2023-08-21T11:27:06;2.00;;;1.30;;
71800;SDS011;59647;55.838;37.292;2023-08-21T11:29:36;3.60;;;1.42;;
71800;SDS011;59647;55.838;37.292;2023-08-21T11:32:10;3.58;;;1.20;;
71800;SDS011;59647;55.838;37.292;2023-08-21T11:34:38;2.00;;;0.90;;
71800;SDS011;59647;55.838;37.292;2023-08-21T11:37:05;1.70;;;1.05;;
71800;SDS011;59647;55.838;37.292;2023-08-21T11:39:44;2.83;;;1.25;;
71800;SDS011;59647;55.838;37.292;2023-08-21T11:42:12;3.08;;;1.15;;
71800;SDS011;59647;55.838;37.292;2023-08-21T11:44:43;4.38;;;1.20;;
71800;SDS011;59647;55.838;37.292;2023-08-21T11:47:10;3.25;;;1.35;;
71800;SDS011;59647;55.838;37.292;2023-08-21T11:49:37;2.92;;;1.10;;
71800;SDS011;59647;55.838;37.292;2023-08-21T11:52:12;4.28;;;1.05;;
71800;SDS011;59647;55.838;37.292;2023-08-21T11:54:39;3.38;;;1.73;;
71800;SDS011;59647;55.838;37.292;2023-08-21T11:59:33;2.22;;;1.20;;
71800;SDS011;59647;55.838;37.292;2023-08-21T12:02:00;2.45;;;1.33;;
71800;SDS011;59647;55.838;37.292;2023-08-21T12:04:33;2.80;;;1.20;;
71800;SDS011;59647;55.838;37.292;2023-08-21T12:07:00;3.70;;;1.55;;
71800;SDS011;59647;55.838;37.292;2023-08-21T12:09:26;3.03;;;1.40;;
71800;SDS011;59647;55.838;37.292;2023-08-21T12:11:52;1.80;;;1.20;;
71800;SDS011;59647;55.838;37.292;2023-08-21T12:14:18;3.63;;;1.35;;
71800;SDS011;59647;55.838;37.292;2023-08-21T12:16:44;4.93;;;1.27;;
71800;SDS011;59647;55.838;37.292;2023-08-21T12:19:10;1.90;;;1.30;;
71800;SDS011;59647;55.838;37.292;2023-08-21T12:21:37;2.60;;;1.30;;
71800;SDS011;59647;55.838;37.292;2023-08-21T12:24:04;3.05;;;1.20;;
71800;SDS011;59647;55.838;37.292;2023-08-21T12:26:32;2.08;;;1.33;;
71800;SDS011;59647;55.838;37.292;2023-08-21T12:28:59;2.08;;;1.08;;
71800;SDS011;59647;55.838;37.292;2023-08-21T12:31:26;3.50;;;1.17;;
71800;SDS011;59647;55.838;37.292;2023-08-21T12:33:52;2.13;;;1.10;;
71800;SDS011;59647;55.838;37.292;2023-08-21T12:36:18;2.65;;;1.10;;
71800;SDS011;59647;55.838;37.292;2023-08-21T12:38:44;4.00;;;1.23;;
71800;SDS011;59647;55.838;37.292;2023-08-21T12:41:09;3.35;;;1.15;;
71800;SDS011;59647;55.838;37.292;2023-08-21T12:43:35;8.48;;;1.50;;
71800;SDS011;59647;55.838;37.292;2023-08-21T12:46:01;2.67;;;1.48;;
71800;SDS011;59647;55.838;37.292;2023-08-21T12:48:27;2.47;;;1.30;;
71800;SDS011;59647;55.838;37.292;2023-08-21T12:50:53;3.53;;;1.38;;
71800;SDS011;59647;55.838;37.292;2023-08-21T12:53:19;4.57;;;1.13;;
71800;SDS011;59647;55.838;37.292;2023-08-21T12:55:45;5.40;;;1.50;;
71800;SDS011;59647;55.838;37.292;2023-08-21T12:58:11;2.53;;;1.27;;
71800;SDS011;59647;55.838;37.292;2023-08-21T13:00:39;7.35;;;1.40;;
71800;SDS011;59647;55.838;37.292;2023-08-21T13:03:05;2.70;;;1.02;;
71800;SDS011;59647;55.838;37.292;2023-08-21T13:05:31;2.17;;;1.10;;
71800;SDS011;59647;55.838;37.292;2023-08-21T13:07:57;2.10;;;1.10;;
71800;SDS011;59647;55.838;37.292;2023-08-21T13:10:23;2.80;;;1.40;;
71800;SDS011;59647;55.838;37.292;2023-08-21T13:12:49;1.92;;;1.02;;
71800;SDS011;59647;55.838;37.292;2023-08-21T13:15:17;2.97;;;1.33;;
71800;SDS011;59647;55.838;37.292;2023-08-21T13:17:43;3.83;;;1.20;;
71800;SDS011;59647;55.838;37.292;2023-08-21T13:20:09;1.95;;;1.10;;
71800;SDS011;59647;55.838;37.292;2023-08-21T13:22:49;2.00;;;1.10;;
71800;SDS011;59647;55.838;37.292;2023-08-21T13:25:22;4.30;;;1.70;;
71800;SDS011;59647;55.838;37.292;2023-08-21T13:27:50;1.92;;;1.15;;
71800;SDS011;59647;55.838;37.292;2023-08-21T13:30:17;3.78;;;1.23;;
71800;SDS011;59647;55.838;37.292;2023-08-21T13:32:43;2.90;;;1.30;;
71800;SDS011;59647;55.838;37.292;2023-08-21T13:35:09;8.45;;;1.48;;
71800;SDS011;59647;55.838;37.292;2023-08-21T13:37:36;5.30;;;1.75;;
71800;SDS011;59647;55.838;37.292;2023-08-21T13:40:03;3.55;;;1.10;;
71800;SDS011;59647;55.838;37.292;2023-08-21T13:42:38;4.97;;;0.98;;
71800;SDS011;59647;55.838;37.292;2023-08-21T13:45:10;2.08;;;0.95;;
71800;SDS011;59647;55.838;37.292;2023-08-21T13:47:45;2.35;;;1.20;;
71800;SDS011;59647;55.838;37.292;2023-08-21T13:50:15;2.28;;;1.33;;
71800;SDS011;59647;55.838;37.292;2023-08-21T13:52:42;2.65;;;1.40;;
71800;SDS011;59647;55.838;37.292;2023-08-21T13:55:09;3.40;;;1.30;;
71800;SDS011;59647;55.838;37.292;2023-08-21T13:57:36;4.75;;;1.20;;
71800;SDS011;59647;55.838;37.292;2023-08-21T14:00:03;2.97;;;1.15;;
71800;SDS011;59647;55.838;37.292;2023-08-21T14:02:37;3.83;;;1.20;;
71800;SDS011;59647;55.838;37.292;2023-08-21T14:05:04;6.20;;;1.50;;
71800;SDS011;59647;55.838;37.292;2023-08-21T14:07:31;2.60;;;1.13;;
71800;SDS011;59647;55.838;37.292;2023-08-21T14:09:57;4.53;;;1.50;;
71800;SDS011;59647;55.838;37.292;2023-08-21T14:12:23;4.57;;;1.33;;
71800;SDS011;59647;55.838;37.292;2023-08-21T14:14:49;1.83;;;1.10;;
71800;SDS011;59647;55.838;37.292;2023-08-21T14:17:15;3.35;;;1.25;;
71800;SDS011;59647;55.838;37.292;2023-08-21T14:19:41;2.63;;;1.30;;
71800;SDS011;59647;55.838;37.292;2023-08-21T14:22:07;5.30;;;1.40;;
71800;SDS011;59647;55.838;37.292;2023-08-21T14:24:33;4.15;;;1.17;;
71800;SDS011;59647;55.838;37.292;2023-08-21T14:27:00;2.70;;;1.70;;
71800;SDS011;59647;55.838;37.292;2023-08-21T14:29:26;2.58;;;1.30;;
71800;SDS011;59647;55.838;37.292;2023-08-21T14:31:52;3.15;;;1.10;;
71800;SDS011;59647;55.838;37.292;2023-08-21T14:34:20;4.85;;;1.48;;
71800;SDS011;59647;55.838;37.292;2023-08-21T14:36:49;3.28;;;1.30;;
71800;SDS011;59647;55.838;37.292;2023-08-21T14:39:15;2.00;;;1.10;;
71800;SDS011;59647;55.838;37.292;2023-08-21T14:41:42;2.95;;;1.67;;
71800;SDS011;59647;55.838;37.292;2023-08-21T14:44:08;2.70;;;1.60;;
71800;SDS011;59647;55.838;37.292;2023-08-21T14:46:35;3.20;;;1.20;;
71800;SDS011;59647;55.838;37.292;2023-08-21T14:49:02;3.13;;;1.40;;
71800;SDS011;59647;55.838;37.292;2023-08-21T14:51:27;2.85;;;1.50;;
71800;SDS011;59647;55.838;37.292;2023-08-21T14:53:53;6.03;;;1.70;;